createdAt,value
2023-01-22T00:01:19.744Z,97734.13
2023-01-22T00:03:49.707Z,97728.95
2023-01-22T00:06:17.910Z,97724.40
2023-01-22T00:08:48.187Z,97730.36
2023-01-22T00:11:18.055Z,97738.75
2023-01-22T00:13:46.435Z,97743.88
2023-01-22T00:16:17.060Z,97741.23
2023-01-22T00:18:45.181Z,97738.89
2023-01-22T00:21:13.631Z,97743.30
2023-01-22T00:23:41.708Z,97737.86
2023-01-22T00:26:16.620Z,97738.12
2023-01-22T00:28:45.584Z,97745.15
2023-01-22T00:31:15.736Z,97741.02
2023-01-22T00:33:45.232Z,97742.89
2023-01-22T00:36:19.443Z,97750.30
2023-01-22T00:38:50.438Z,97754.17
2023-01-22T00:41:19.655Z,97751.61
2023-01-22T00:43:50.025Z,97742.55
2023-01-22T00:46:19.270Z,97737.32
2023-01-22T00:48:51.249Z,97737.18
2023-01-22T00:51:22.142Z,97743.10
2023-01-22T00:53:50.136Z,97748.09
2023-01-22T00:56:18.334Z,97749.44
2023-01-22T00:58:46.439Z,97753.23
2023-01-22T01:01:15.811Z,97762.98
2023-01-22T01:03:44.434Z,97775.20
2023-01-22T01:06:19.864Z,97774.45
2023-01-22T01:08:49.839Z,97777.87
2023-01-22T01:11:22.239Z,97779.02
2023-01-22T01:13:52.227Z,97780.34
2023-01-22T01:16:32.786Z,97774.30
2023-01-22T01:19:08.201Z,97776.46
2023-01-22T01:21:36.711Z,97782.30
2023-01-22T01:24:05.849Z,97781.91
2023-01-22T01:26:35.462Z,97783.07
2023-01-22T01:29:04.862Z,97781.73
2023-01-22T01:31:32.987Z,97782.52
2023-01-22T01:34:00.985Z,97780.77
2023-01-22T01:36:47.724Z,97783.01
2023-01-22T01:39:19.127Z,97789.15
2023-01-22T01:41:48.359Z,97789.61
2023-01-22T01:44:20.137Z,97787.13
2023-01-22T01:46:55.615Z,97783.89
2023-01-22T01:49:36.675Z,97782.70
2023-01-22T01:52:13.214Z,97778.54
2023-01-22T01:54:45.194Z,97781.85
2023-01-22T01:57:16.943Z,97780.27
2023-01-22T01:59:46.734Z,97781.34
2023-01-22T02:02:16.123Z,97774.13
2023-01-22T02:04:44.539Z,97772.27
2023-01-22T02:07:12.667Z,97769.93
2023-01-22T02:09:40.862Z,97762.39
2023-01-22T02:12:09.745Z,97754.73
2023-01-22T02:14:41.835Z,97755.34
2023-01-22T02:17:18.077Z,97771.61
2023-01-22T02:19:46.051Z,97768.02
2023-01-22T02:22:20.187Z,97763.16
2023-01-22T02:24:49.293Z,97757.66
2023-01-22T02:27:18.352Z,97754.30
2023-01-22T02:29:47.344Z,97760.87
2023-01-22T02:32:15.323Z,97774.64
2023-01-22T02:34:44.405Z,97765.20
2023-01-22T02:37:12.718Z,97766.77
2023-01-22T02:39:41.198Z,97763.21
2023-01-22T02:42:09.945Z,97754.55
2023-01-22T02:44:38.436Z,97755.77
2023-01-22T02:47:07.501Z,97754.71
2023-01-22T02:49:35.718Z,97757.48
2023-01-22T02:52:04.285Z,97755.17
2023-01-22T02:54:32.820Z,97755.52
2023-01-22T02:57:01.086Z,97756.67
2023-01-22T02:59:29.728Z,97759.82
2023-01-22T03:01:58.315Z,97760.45
2023-01-22T03:04:28.972Z,97762.26
2023-01-22T03:06:57.018Z,97764.72
2023-01-22T03:09:26.018Z,97770.67
2023-01-22T03:11:54.161Z,97776.73
2023-01-22T03:14:47.047Z,97782.86
2023-01-22T03:17:34.671Z,97787.34
2023-01-22T03:20:21.596Z,97791.88
2023-01-22T03:22:49.593Z,97788.46
2023-01-22T03:25:17.605Z,97789.43
2023-01-22T03:28:04.613Z,97788.70
2023-01-22T03:30:35.082Z,97787.98
2023-01-22T03:33:04.100Z,97787.06
2023-01-22T03:35:32.180Z,97785.79
2023-01-22T03:38:05.992Z,97785.52
2023-01-22T03:40:35.492Z,97786.98
2023-01-22T03:43:03.634Z,97786.55
2023-01-22T03:45:35.023Z,97790.11
2023-01-22T03:48:05.030Z,97792.51
2023-01-22T03:50:38.943Z,97797.27
2023-01-22T03:53:07.158Z,97799.48
2023-01-22T03:55:35.233Z,97797.80
2023-01-22T03:58:03.745Z,97798.77
2023-01-22T04:00:32.412Z,97791.40
2023-01-22T04:03:03.207Z,97792.13
2023-01-22T04:05:31.692Z,97793.08
2023-01-22T04:07:59.846Z,97799.27
2023-01-22T04:10:30.597Z,97794.39
2023-01-22T04:13:00.431Z,97788.13
2023-01-22T04:15:28.912Z,97793.84
2023-01-22T04:17:57.808Z,97799.74
2023-01-22T04:20:33.391Z,97791.91
2023-01-22T04:23:21.460Z,97807.60
2023-01-22T04:25:51.650Z,97806.83
2023-01-22T04:28:20.955Z,97805.73
2023-01-22T04:30:54.851Z,97824.41
2023-01-22T04:33:34.282Z,97827.17
2023-01-22T04:36:09.484Z,97823.48
2023-01-22T04:38:38.124Z,97828.58
2023-01-22T04:41:08.717Z,97835.30
2023-01-22T04:43:36.742Z,97829.96
2023-01-22T04:46:04.925Z,97828.62
2023-01-22T04:48:34.366Z,97826.87
2023-01-22T04:51:02.486Z,97820.09
2023-01-22T04:53:32.297Z,97816.98
2023-01-22T04:56:00.916Z,97818.13
2023-01-22T04:58:29.126Z,97826.85
2023-01-22T05:00:59.691Z,97839.83
2023-01-22T05:03:28.757Z,97855.05
2023-01-22T05:05:57.115Z,97857.82
2023-01-22T05:08:25.329Z,97854.00
2023-01-22T05:10:53.339Z,97849.88
2023-01-22T05:13:26.586Z,97853.64
2023-01-22T05:15:57.267Z,97854.13
2023-01-22T05:18:28.568Z,97862.23
2023-01-22T05:20:56.616Z,97837.05
2023-01-22T05:23:27.821Z,97819.89
2023-01-22T05:25:56.497Z,97847.86
2023-01-22T05:28:54.484Z,97866.98
2023-01-22T05:31:37.635Z,97870.98
2023-01-22T05:34:08.602Z,97866.68
2023-01-22T05:36:36.658Z,97872.20
2023-01-22T05:39:10.561Z,97876.44
2023-01-22T05:41:38.721Z,97885.00
2023-01-22T05:44:07.499Z,97892.30
2023-01-22T05:46:35.549Z,97895.09
2023-01-22T05:49:28.479Z,97900.16
2023-01-22T05:51:58.113Z,97888.17
2023-01-22T05:54:26.578Z,97895.41
2023-01-22T05:56:54.904Z,97900.50
2023-01-22T05:59:24.464Z,97914.23
2023-01-22T06:01:57.307Z,97927.77
2023-01-22T06:04:25.495Z,97927.80
2023-01-22T06:06:53.661Z,97944.87
2023-01-22T06:09:22.719Z,97953.58
2023-01-22T06:11:51.241Z,97959.23
2023-01-22T06:14:20.139Z,97966.58
2023-01-22T06:16:49.692Z,97976.98
2023-01-22T06:19:46.982Z,97991.38
2023-01-22T06:22:16.758Z,98001.77
2023-01-22T06:24:57.532Z,98008.63
2023-01-22T06:27:28.275Z,98013.66
2023-01-22T06:30:00.042Z,98019.46
2023-01-22T06:32:28.542Z,98014.88
2023-01-22T06:34:56.597Z,98013.19
2023-01-22T06:37:24.610Z,98011.66
2023-01-22T06:39:53.238Z,98006.20
2023-01-22T06:42:41.477Z,97997.41
2023-01-22T06:45:09.887Z,97989.13
2023-01-22T06:47:43.675Z,97973.78
2023-01-22T06:50:13.715Z,97964.69
2023-01-22T06:52:41.867Z,97972.27
2023-01-22T06:55:10.367Z,97980.89
2023-01-22T06:57:39.657Z,97991.34
2023-01-22T07:00:08.660Z,97981.05
2023-01-22T07:02:36.653Z,97983.29
2023-01-22T07:05:05.187Z,97981.41
2023-01-22T07:07:33.175Z,97977.02
2023-01-22T07:10:01.930Z,97975.95
2023-01-22T07:12:30.041Z,97984.36
2023-01-22T07:14:58.352Z,97994.83
2023-01-22T07:17:26.321Z,98007.89
2023-01-22T07:19:54.646Z,98023.61
2023-01-22T07:22:22.806Z,98029.14
2023-01-22T07:24:50.881Z,98035.16
2023-01-22T07:27:18.851Z,98038.98
2023-01-22T07:29:47.932Z,98047.52
2023-01-22T07:32:16.921Z,98047.97
2023-01-22T07:34:45.793Z,98049.16
2023-01-22T07:37:13.931Z,98055.20
2023-01-22T07:39:41.974Z,98059.26
2023-01-22T07:42:10.107Z,98060.27
2023-01-22T07:44:40.483Z,98064.52
2023-01-22T07:47:09.305Z,98075.89
2023-01-22T07:49:37.331Z,98077.28
2023-01-22T07:52:07.274Z,98077.42
2023-01-22T07:54:36.595Z,98081.48
2023-01-22T07:57:05.155Z,98082.67
2023-01-22T07:59:35.472Z,98082.41
2023-01-22T08:02:04.510Z,98081.54
2023-01-22T08:04:32.495Z,98084.81
2023-01-22T08:07:00.388Z,98082.06
2023-01-22T08:09:28.317Z,98079.33
2023-01-22T08:11:56.275Z,98083.75
2023-01-22T08:14:27.204Z,98088.16
2023-01-22T08:16:56.094Z,98092.92
2023-01-22T08:19:24.155Z,98092.99
2023-01-22T08:21:52.968Z,98092.52
2023-01-22T08:24:21.854Z,98096.85
2023-01-22T08:26:49.920Z,98093.98
2023-01-22T08:29:22.319Z,98087.88
2023-01-22T08:31:51.359Z,98098.35
2023-01-22T08:34:20.760Z,98111.16
2023-01-22T08:36:48.790Z,98106.70
2023-01-22T08:39:16.828Z,98107.64
2023-01-22T08:41:45.212Z,98113.86
2023-01-22T08:44:13.973Z,98118.52
2023-01-22T08:46:42.252Z,98120.06
2023-01-22T08:49:11.441Z,98123.95
2023-01-22T08:51:39.608Z,98127.05
2023-01-22T08:54:08.641Z,98134.42
2023-01-22T08:56:36.719Z,98136.69
2023-01-22T08:59:06.865Z,98140.92
2023-01-22T09:01:35.437Z,98137.80
2023-01-22T09:04:07.042Z,98138.71
2023-01-22T09:06:36.153Z,98135.57
2023-01-22T09:09:06.251Z,98135.64
2023-01-22T09:11:34.229Z,98133.32
2023-01-22T09:14:02.722Z,98134.06
2023-01-22T09:16:33.271Z,98133.75
2023-01-22T09:19:01.466Z,98135.23
2023-01-22T09:21:29.638Z,98134.21
2023-01-22T09:23:57.571Z,98131.13
2023-01-22T09:26:25.799Z,98130.16
2023-01-22T09:28:53.791Z,98125.01
2023-01-22T09:31:22.111Z,98124.97
2023-01-22T09:33:51.283Z,98127.05
2023-01-22T09:36:19.636Z,98126.13
2023-01-22T09:38:48.270Z,98123.44
2023-01-22T09:41:36.615Z,98119.59
2023-01-22T09:44:32.142Z,98123.23
2023-01-22T09:47:07.891Z,98124.08
2023-01-22T09:49:52.492Z,98121.86
2023-01-22T09:52:24.897Z,98117.33
2023-01-22T09:54:54.278Z,98115.00
2023-01-22T09:57:31.361Z,98114.38
2023-01-22T10:00:00.398Z,98113.59
2023-01-22T10:02:37.146Z,98114.40
2023-01-22T10:05:40.199Z,98116.17
2023-01-22T10:08:26.043Z,98118.79
2023-01-22T10:10:54.107Z,98112.57
2023-01-22T10:13:27.638Z,98111.70
2023-01-22T10:15:56.569Z,98115.86
2023-01-22T10:18:40.770Z,98118.09
2023-01-22T10:21:28.493Z,98120.35
2023-01-22T10:23:58.307Z,98123.35
2023-01-22T10:26:35.908Z,98119.63
2023-01-22T10:29:10.197Z,98120.65
2023-01-22T10:31:45.532Z,98116.05
2023-01-22T10:34:28.305Z,98121.40
2023-01-22T10:37:04.299Z,98124.20
2023-01-22T10:39:43.913Z,98127.21
2023-01-22T10:42:20.695Z,98129.75
2023-01-22T10:44:49.653Z,98129.31
2023-01-22T10:47:21.191Z,98133.83
2023-01-22T10:50:04.011Z,98132.98
2023-01-22T10:52:41.574Z,98136.67
2023-01-22T10:55:33.053Z,98139.93
2023-01-22T10:58:06.420Z,98137.36
2023-01-22T11:00:50.528Z,98135.17
2023-01-22T11:03:28.458Z,98135.77
2023-01-22T11:06:22.739Z,98136.08
2023-01-22T11:09:40.725Z,98135.78
2023-01-22T11:12:23.523Z,98145.54
2023-01-22T11:15:21.282Z,98150.09
2023-01-22T11:17:56.828Z,98151.23
2023-01-22T11:20:30.735Z,98156.51
2023-01-22T11:23:11.508Z,98158.34
2023-01-22T11:26:05.920Z,98156.90
2023-01-22T11:29:04.830Z,98156.45
2023-01-22T11:31:59.906Z,98160.67
2023-01-22T11:34:56.334Z,98164.09
2023-01-22T11:38:08.319Z,98167.43
2023-01-22T11:41:01.720Z,98167.20
2023-01-22T11:43:57.361Z,98173.88
2023-01-22T11:46:59.555Z,98175.21
2023-01-22T11:49:52.890Z,98176.42
2023-01-22T11:52:51.268Z,98177.86
2023-01-22T11:56:03.878Z,98178.15
2023-01-22T11:59:09.090Z,98183.52
2023-01-22T12:01:37.128Z,98189.92
2023-01-22T12:04:46.573Z,98190.48
2023-01-22T12:07:20.548Z,98193.15
2023-01-22T12:09:48.452Z,98196.63
2023-01-22T12:12:28.050Z,98194.89
2023-01-22T12:15:17.718Z,98194.64
2023-01-22T12:17:54.515Z,98194.08
2023-01-22T12:20:34.935Z,98199.83
2023-01-22T12:23:11.749Z,98205.48
2023-01-22T12:25:54.445Z,98209.04
2023-01-22T12:28:33.916Z,98203.92
2023-01-22T12:31:24.395Z,98209.88
2023-01-22T12:33:54.134Z,98213.95
2023-01-22T12:36:25.815Z,98220.64
2023-01-22T12:38:57.582Z,98219.28
2023-01-22T12:41:57.861Z,98221.86
2023-01-22T12:44:45.876Z,98222.85
2023-01-22T12:47:16.841Z,98225.94
2023-01-22T12:49:50.355Z,98234.81
2023-01-22T12:52:28.458Z,98241.45
2023-01-22T12:54:56.809Z,98241.02
2023-01-22T12:57:37.102Z,98243.45
2023-01-22T13:00:23.785Z,98245.97
2023-01-22T13:02:52.194Z,98253.16
2023-01-22T13:05:38.488Z,98250.17
2023-01-22T13:08:21.792Z,98256.52
2023-01-22T13:10:55.620Z,98257.34
2023-01-22T13:14:03.156Z,98263.63
2023-01-22T13:16:39.365Z,98269.67
2023-01-22T13:19:27.536Z,98272.58
2023-01-22T13:22:00.848Z,98276.23
2023-01-22T13:24:29.587Z,98274.81
2023-01-22T13:27:00.869Z,98278.04
2023-01-22T13:29:37.081Z,98280.51
2023-01-22T13:32:17.041Z,98278.95
2023-01-22T13:34:45.165Z,98279.55
2023-01-22T13:37:21.255Z,98281.91
2023-01-22T13:39:49.321Z,98280.98
2023-01-22T13:42:19.519Z,98280.10
2023-01-22T13:44:51.683Z,98283.23
2023-01-22T13:47:31.745Z,98284.23
2023-01-22T13:50:00.191Z,98285.53
2023-01-22T13:52:29.227Z,98284.39
2023-01-22T13:55:11.649Z,98288.98
2023-01-22T13:57:49.145Z,98292.25
2023-01-22T14:00:30.377Z,98297.73
2023-01-22T14:02:59.606Z,98296.91
2023-01-22T14:05:34.008Z,98295.04
2023-01-22T14:08:12.582Z,98296.77
2023-01-22T14:10:42.279Z,98296.02
2023-01-22T14:13:13.413Z,98300.09
2023-01-22T14:15:44.749Z,98301.27
2023-01-22T14:18:21.212Z,98301.57
2023-01-22T14:20:49.236Z,98301.77
2023-01-22T14:23:17.366Z,98303.67
2023-01-22T14:25:48.590Z,98298.64
2023-01-22T14:28:17.366Z,98301.33
2023-01-22T14:30:47.304Z,98303.99
2023-01-22T14:33:23.821Z,98303.51
2023-01-22T14:35:54.157Z,98304.70
2023-01-22T14:38:23.948Z,98310.33
2023-01-22T14:40:54.010Z,98312.30
2023-01-22T14:43:22.182Z,98320.77
2023-01-22T14:45:50.592Z,98319.04
2023-01-22T14:48:20.907Z,98316.49
2023-01-22T14:50:50.361Z,98310.92
2023-01-22T14:53:19.482Z,98312.81
2023-01-22T14:55:47.583Z,98314.15
2023-01-22T14:58:16.347Z,98317.88
2023-01-22T15:00:45.250Z,98323.33
2023-01-22T15:03:13.286Z,98323.23
2023-01-22T15:05:41.284Z,98323.00
2023-01-22T15:08:09.397Z,98325.12
2023-01-22T15:10:41.482Z,98328.24
2023-01-22T15:13:10.254Z,98326.17
2023-01-22T15:15:39.400Z,98327.39
2023-01-22T15:18:07.356Z,98328.58
2023-01-22T15:20:35.637Z,98335.09
2023-01-22T15:23:05.197Z,98340.23
2023-01-22T15:25:34.541Z,98336.80
2023-01-22T15:28:03.587Z,98339.46
2023-01-22T15:30:31.745Z,98337.32
2023-01-22T15:32:59.753Z,98335.77
2023-01-22T15:35:27.683Z,98338.91
2023-01-22T15:37:55.639Z,98341.05
2023-01-22T15:40:24.679Z,98341.70
2023-01-22T15:42:52.785Z,98348.15
2023-01-22T15:45:20.757Z,98349.56
2023-01-22T15:47:49.851Z,98350.33
2023-01-22T15:50:20.465Z,98351.02
2023-01-22T15:52:54.691Z,98351.42
2023-01-22T15:55:22.903Z,98355.36
2023-01-22T15:57:50.871Z,98357.40
2023-01-22T16:00:19.461Z,98357.31
2023-01-22T16:02:47.722Z,98357.23
2023-01-22T16:05:16.213Z,98363.25
2023-01-22T16:07:44.223Z,98364.84
2023-01-22T16:10:12.219Z,98363.18
2023-01-22T16:12:41.319Z,98362.77
2023-01-22T16:15:11.006Z,98362.11
2023-01-22T16:17:39.193Z,98364.25
2023-01-22T16:20:08.452Z,98364.31
2023-01-22T16:22:36.422Z,98367.84
2023-01-22T16:25:05.076Z,98372.20
2023-01-22T16:27:33.167Z,98373.59
2023-01-22T16:30:01.388Z,98376.52
2023-01-22T16:32:29.919Z,98378.00
2023-01-22T16:34:58.074Z,98380.99
2023-01-22T16:37:26.212Z,98379.01
2023-01-22T16:39:54.955Z,98377.46
2023-01-22T16:42:23.016Z,98378.11
2023-01-22T16:44:51.075Z,98380.09
2023-01-22T16:47:21.688Z,98379.42
2023-01-22T16:49:49.680Z,98377.13
2023-01-22T16:52:22.961Z,98380.14
2023-01-22T16:54:52.347Z,98387.77
2023-01-22T16:57:20.457Z,98386.13
2023-01-22T16:59:48.505Z,98389.79
2023-01-22T17:02:19.226Z,98386.85
2023-01-22T17:04:47.660Z,98387.39
2023-01-22T17:07:31.963Z,98391.36
2023-01-22T17:10:01.869Z,98401.61
2023-01-22T17:12:30.232Z,98409.05
2023-01-22T17:14:58.653Z,98411.11
2023-01-22T17:17:27.069Z,98414.95
2023-01-22T17:19:55.028Z,98417.23
2023-01-22T17:22:24.857Z,98422.05
2023-01-22T17:24:53.159Z,98422.27
2023-01-22T17:27:21.628Z,98427.80
2023-01-22T17:29:49.861Z,98427.59
2023-01-22T17:32:18.655Z,98430.61
2023-01-22T17:34:47.201Z,98433.23
2023-01-22T17:37:16.472Z,98432.46
2023-01-22T17:39:50.830Z,98429.57
2023-01-22T17:42:19.190Z,98433.44
2023-01-22T17:44:47.353Z,98434.21
2023-01-22T17:47:16.675Z,98429.35
2023-01-22T17:49:45.867Z,98435.98
2023-01-22T17:52:17.661Z,98430.98
2023-01-22T17:54:46.087Z,98434.07
2023-01-22T17:57:14.005Z,98428.67
2023-01-22T17:59:42.023Z,98433.77
2023-01-22T18:02:11.381Z,98437.67
2023-01-22T18:04:39.736Z,98441.73
2023-01-22T18:07:09.067Z,98446.54
2023-01-22T18:09:37.453Z,98451.52
2023-01-22T18:12:05.702Z,98446.21
2023-01-22T18:14:34.299Z,98445.64
2023-01-22T18:17:03.911Z,98444.23
2023-01-22T18:19:32.157Z,98443.00
2023-01-22T18:22:00.969Z,98444.30
2023-01-22T18:24:31.809Z,98449.27
2023-01-22T18:27:00.088Z,98449.63
2023-01-22T18:29:28.470Z,98452.99
2023-01-22T18:31:56.596Z,98455.48
2023-01-22T18:34:25.673Z,98456.63
2023-01-22T18:36:54.376Z,98454.30
2023-01-22T18:39:22.387Z,98454.48
2023-01-22T18:41:51.018Z,98458.41
2023-01-22T18:44:19.929Z,98458.36
2023-01-22T18:46:52.324Z,98462.82
2023-01-22T18:49:22.999Z,98462.98
2023-01-22T18:51:55.295Z,98467.60
2023-01-22T18:54:25.494Z,98472.84
2023-01-22T18:56:53.547Z,98478.17
2023-01-22T18:59:22.104Z,98482.52
2023-01-22T19:01:51.854Z,98487.70
2023-01-22T19:04:22.123Z,98492.52
2023-01-22T19:06:53.707Z,98497.11
2023-01-22T19:09:21.771Z,98498.83
2023-01-22T19:11:52.764Z,98498.29
2023-01-22T19:14:22.165Z,98500.29
2023-01-22T19:16:56.064Z,98501.33
2023-01-22T19:19:24.949Z,98501.45
2023-01-22T19:21:55.371Z,98504.55
2023-01-22T19:24:30.621Z,98508.31
2023-01-22T19:26:59.414Z,98510.25
2023-01-22T19:29:27.572Z,98519.98
2023-01-22T19:31:57.271Z,98518.53
2023-01-22T19:34:29.754Z,98522.63
2023-01-22T19:37:03.067Z,98518.61
2023-01-22T19:39:33.378Z,98515.00
2023-01-22T19:42:05.202Z,98511.55
2023-01-22T19:44:35.409Z,98508.84
2023-01-22T19:47:06.042Z,98507.73
2023-01-22T19:49:34.166Z,98512.55
2023-01-22T19:52:02.274Z,98515.70
2023-01-22T19:54:30.226Z,98518.86
2023-01-22T19:56:58.362Z,98519.55
2023-01-22T19:59:27.529Z,98518.68
2023-01-22T20:01:55.541Z,98519.82
2023-01-22T20:04:26.357Z,98519.71
2023-01-22T20:07:01.952Z,98521.03
2023-01-22T20:09:30.941Z,98517.48
2023-01-22T20:12:01.416Z,98515.36
2023-01-22T20:14:32.293Z,98513.83
2023-01-22T20:17:02.379Z,98511.36
2023-01-22T20:19:31.083Z,98507.73
2023-01-22T20:22:02.890Z,98508.74
2023-01-22T20:24:30.937Z,98507.38
2023-01-22T20:26:59.127Z,98506.83
2023-01-22T20:29:27.214Z,98507.64
2023-01-22T20:31:59.418Z,98511.18
2023-01-22T20:34:29.608Z,98511.65
2023-01-22T20:36:57.910Z,98509.25
2023-01-22T20:39:27.407Z,98505.25
2023-01-22T20:41:56.060Z,98508.77
2023-01-22T20:44:26.902Z,98510.10
2023-01-22T20:46:56.721Z,98511.27
2023-01-22T20:49:24.822Z,98514.31
2023-01-22T20:51:53.503Z,98514.07
2023-01-22T20:54:21.506Z,98516.13
2023-01-22T20:56:50.412Z,98516.68
2023-01-22T20:59:19.424Z,98523.95
2023-01-22T21:01:48.007Z,98526.37
2023-01-22T21:04:18.173Z,98524.35
2023-01-22T21:06:47.516Z,98525.42
2023-01-22T21:09:15.697Z,98527.16
2023-01-22T21:11:46.470Z,98529.70
2023-01-22T21:14:20.485Z,98526.86
2023-01-22T21:16:49.170Z,98527.12
2023-01-22T21:19:23.594Z,98524.73
2023-01-22T21:21:52.876Z,98526.29
2023-01-22T21:24:21.353Z,98533.66
2023-01-22T21:26:49.877Z,98533.03
2023-01-22T21:29:20.767Z,98532.45
2023-01-22T21:31:51.213Z,98533.48
2023-01-22T21:34:23.002Z,98541.86
2023-01-22T21:36:53.878Z,98545.52
2023-01-22T21:39:24.793Z,98549.20
2023-01-22T21:42:13.493Z,98545.38
2023-01-22T21:45:01.906Z,98541.80
2023-01-22T21:47:30.423Z,98541.81
2023-01-22T21:49:59.519Z,98539.59
2023-01-22T21:52:27.959Z,98535.45
2023-01-22T21:54:57.047Z,98532.63
2023-01-22T21:57:26.037Z,98531.57
2023-01-22T21:59:53.994Z,98534.49
2023-01-22T22:02:22.390Z,98537.83
2023-01-22T22:04:51.180Z,98537.42
2023-01-22T22:07:20.268Z,98534.27
2023-01-22T22:09:48.381Z,98534.80
2023-01-22T22:12:16.327Z,98536.13
2023-01-22T22:14:44.329Z,98538.53
2023-01-22T22:17:12.363Z,98545.61
2023-01-22T22:19:40.434Z,98545.73
2023-01-22T22:22:08.813Z,98544.60
2023-01-22T22:24:36.897Z,98538.35
2023-01-22T22:27:05.051Z,98540.65
2023-01-22T22:29:33.170Z,98538.36
2023-01-22T22:32:01.330Z,98543.42
2023-01-22T22:34:29.412Z,98546.75
2023-01-22T22:36:57.684Z,98549.58
2023-01-22T22:39:25.679Z,98548.99
2023-01-22T22:41:53.742Z,98549.85
2023-01-22T22:44:21.698Z,98552.84
2023-01-22T22:46:49.909Z,98551.88
2023-01-22T22:49:18.393Z,98553.38
2023-01-22T22:51:46.820Z,98553.75
2023-01-22T22:54:19.294Z,98555.23
2023-01-22T22:56:49.180Z,98554.69
2023-01-22T22:59:19.848Z,98555.41
2023-01-22T23:01:49.742Z,98563.60
2023-01-22T23:04:18.051Z,98562.83
2023-01-22T23:06:46.926Z,98564.59
2023-01-22T23:09:19.851Z,98569.17
2023-01-22T23:11:52.062Z,98570.44
2023-01-22T23:14:20.229Z,98566.61
2023-01-22T23:16:49.224Z,98563.51
2023-01-22T23:19:24.522Z,98557.20
2023-01-22T23:21:55.471Z,98558.50
2023-01-22T23:24:23.539Z,98558.85
2023-01-22T23:26:52.687Z,98559.52
2023-01-22T23:29:24.284Z,98564.61
2023-01-22T23:31:53.037Z,98565.98
2023-01-22T23:34:22.625Z,98564.34
2023-01-22T23:36:51.373Z,98563.23
2023-01-22T23:39:21.022Z,98565.61
2023-01-22T23:41:49.188Z,98568.45
2023-01-22T23:44:18.697Z,98564.55
2023-01-22T23:46:46.772Z,98564.16
2023-01-22T23:49:14.903Z,98559.34
2023-01-22T23:51:44.731Z,98565.17
2023-01-22T23:54:13.106Z,98570.98
2023-01-22T23:56:41.100Z,98574.13
2023-01-22T23:59:11.386Z,98572.31
